ADDS METAR Data INFO
IDs: Format: Raw Decoded Include TAF

Data at: 0852 UTC 19 Jun 2018

PAOH 190756Z AUTO 10004KT 10SM CLR 13/12 A3014 RMK AO2 SLP206 T01280117 402170117
PAOH 190656Z AUTO 00000KT 10SM CLR 14/13 A3013 RMK AO2 SLP205 T01440128
PAOH 190556Z AUTO 10004KT 10SM CLR 16/14 A3012 RMK AO2 SLP201 T01610144 10217 20161 55001
PAOH 190456Z AUTO 09005KT 10SM CLR 19/14 A3012 RMK AO2 SLP199 T01890139
PAOH 190356Z AUTO 08004KT 10SM CLR 21/14 A3012 RMK AO2 SLP200 T02110139
PAOH 190256Z AUTO 09004KT 10SM CLR 22/14 A3013 RMK AO2 SLP202 T02170144 58013
PAOH 190156Z AUTO VRB04KT 10SM CLR 21/14 A3015 RMK AO2 SLP209 T02110144
PAOH 190056Z AUTO 08005KT 10SM CLR 21/14 A3015 RMK AO2 SLP212 T02110139
PAOH 182356Z AUTO 10009KT 10SM CLR 21/14 A3016 RMK AO2 SLP215 T02060139 10206 20156 58012
PAOH 182256Z AUTO 09009KT 10SM CLR 20/14 A3018 RMK AO2 SLP221 T02000139
PAOH 182156Z AUTO 11004KT 10SM CLR 19/14 A3019 RMK AO2 SLP226 T01940139
PAOH 182056Z AUTO 09008KT 10SM CLR 18/13 A3020 RMK AO2 SLP227 T01830133 56013
PAOH 181956Z AUTO 09007KT 10SM CLR 18/13 A3021 RMK AO2 SLP231 T01780128
PAOH 181936Z AUTO 00000KT 10SM SCT020 17/13 A3021 RMK AO2
PAOH 181856Z AUTO 00000KT 10SM OVC020 17/13 A3022 RMK AO2 SLP235 T01670128
PAOH 181756Z AUTO 00000KT 10SM OVC020 15/12 A3024 RMK AO2 SLP239 T01500122 10156 20117 58002
PAOH 181741Z AUTO 27004KT 10SM SCT012 OVC020 14/12 A3024 RMK AO2
PAOH 181726Z AUTO 28004KT 10SM BKN012 OVC020 15/12 A3024 RMK AO2
PAOH 181656Z AUTO 00000KT 10SM OVC020 15/12 A3024 RMK AO2 SLP240 T01500117
PAOH 181556Z AUTO 25004KT 10SM FEW007 OVC022 13/12 A3024 RMK AO2 SLP242 T01330117
PAOH 181551Z AUTO 26004KT 10SM SCT007 OVC022 13/12 A3024 RMK AO2
PAOH 181456Z AUTO 00000KT 10SM BKN007 OVC024 13/12 A3024 RMK AO2 SLP240 T01280117 58001
PAOH 181452Z AUTO 00000KT 10SM BKN007 OVC024 13/12 A3024 RMK AO2
PAOH 181445Z AUTO 00000KT 10SM SCT007 OVC024 13/12 A3023 RMK AO2
PAOH 181356Z AUTO 00000KT 10SM OVC007 12/11 A3024 RMK AO2 SLP243 T01220111
PAOH 181256Z AUTO 00000KT 10SM BKN007 OVC023 12/11 A3024 RMK AO2 SLP240 T01220111
PAOH 181156Z AUTO 00000KT 10SM FEW009 SCT014 OVC021 12/11 A3024 RMK AO2 SLP240 T01170111 10122 20117 58001
PAOH 181135Z AUTO 00000KT 10SM SCT006 OVC014 12/11 A3024 RMK AO2
PAOH 181056Z AUTO 00000KT 10SM BKN006 OVC014 12/11 A3024 RMK AO2 SLP241 T01170111
PAOH 180956Z AUTO 00000KT 10SM BKN006 OVC022 12/11 A3024 RMK AO2 SLP242 T01170111
PAOH 180951Z AUTO 00000KT 10SM SCT006 OVC022 12/11 A3024 RMK AO2
PAOH 180856Z AUTO 00000KT 10SM OVC022 12/11 A3024 RMK AO2 SLP241 T01170111 53007
PAOH 180756Z AUTO 28003KT 10SM SCT015 BKN026 12/11 A3023 RMK AO2 SLP238 T01170111 401670111
PAOH 180743Z AUTO 00000KT 10SM SCT015 BKN026 BKN110 12/11 A3022 RMK AO2
PAOH 180656Z AUTO 00000KT 10SM FEW015 OVC085 12/11 A3021 RMK AO2 SLP232 T01220111
PAOH 180556Z AUTO 08003KT 10SM SCT015 OVC065 13/11 A3022 RMK AO2 SLP234 T01280111 10156 20128 50000
PAOH 180517Z AUTO 00000KT 10SM SCT015 BKN031 OVC070 13/12 A3022 RMK AO2
PAOH 180456Z AUTO 08003KT 10SM SCT015 BKN029 OVC070 13/12 A3022 RMK AO2 SLP235 T01330117
PAOH 180434Z AUTO 08006KT 10SM BKN015 OVC029 13/12 A3022 RMK AO2
PAOH 180356Z AUTO 00000KT 10SM FEW020 OVC033 14/12 A3022 RMK AO2 SLP234 T01440117
PAOH 180305Z AUTO 08004KT 10SM FEW020 BKN032 OVC038 14/12 A3022 RMK AO2
PAOH 180256Z AUTO 09004KT 10SM FEW020 BKN029 OVC037 14/12 A3022 RMK AO2 SLP234 T01440117 53002
PAOH 180156Z AUTO 26003KT 10SM BKN027 OVC035 15/12 A3021 RMK AO2 SLP232 T01500122
PAOH 180056Z AUTO 26003KT 10SM OVC027 15/12 A3021 RMK AO2 SLP232 T01500122
PAOH 172356Z AUTO VRB03KT 10SM OVC027 16/12 A3021 RMK AO2 SLP231 60000 T01560117 10167 20139 53002
PAOH 172256Z AUTO 30003KT 10SM OVC025 16/12 A3021 RMK AO2 SLP230 T01610117
PAOH 172156Z AUTO 09003KT 10SM OVC029 16/12 A3020 RMK AO2 SLP228 T01560117
PAOH 172056Z AUTO 09005KT 10SM OVC026 15/12 A3020 RMK AO2 SLP229 60000 T01500117 56005